sensor_id;sensor_type;location;lat;lon;timestamp;P1;durP1;ratioP1;P2;durP2;ratioP2
9445;SDS011;4761;49.490;10.908;2022-09-12T00:01:14;4.32;;;3.45;;
9445;SDS011;4761;49.490;10.908;2022-09-12T00:03:42;3.47;;;3.23;;
9445;SDS011;4761;49.490;10.908;2022-09-12T00:06:19;3.17;;;2.92;;
9445;SDS011;4761;49.490;10.908;2022-09-12T00:08:48;3.33;;;3.03;;
9445;SDS011;4761;49.490;10.908;2022-09-12T00:11:21;3.50;;;3.20;;
9445;SDS011;4761;49.490;10.908;2022-09-12T00:13:47;4.05;;;2.90;;
9445;SDS011;4761;49.490;10.908;2022-09-12T00:16:14;4.20;;;2.70;;
9445;SDS011;4761;49.490;10.908;2022-09-12T00:18:49;3.30;;;2.93;;
9445;SDS011;4761;49.490;10.908;2022-09-12T00:21:17;3.30;;;3.00;;
9445;SDS011;4761;49.490;10.908;2022-09-12T00:23:43;3.30;;;3.00;;
9445;SDS011;4761;49.490;10.908;2022-09-12T00:26:09;4.07;;;3.13;;
9445;SDS011;4761;49.490;10.908;2022-09-12T00:28:36;5.93;;;2.90;;
9445;SDS011;4761;49.490;10.908;2022-09-12T00:31:06;3.40;;;2.70;;
9445;SDS011;4761;49.490;10.908;2022-09-12T00:33:34;4.00;;;2.67;;
9445;SDS011;4761;49.490;10.908;2022-09-12T00:36:04;2.90;;;2.70;;
9445;SDS011;4761;49.490;10.908;2022-09-12T00:38:32;2.67;;;2.47;;
9445;SDS011;4761;49.490;10.908;2022-09-12T00:40:57;5.10;;;2.77;;
9445;SDS011;4761;49.490;10.908;2022-09-12T00:46:01;2.60;;;2.40;;
9445;SDS011;4761;49.490;10.908;2022-09-12T00:48:41;2.70;;;2.50;;
9445;SDS011;4761;49.490;10.908;2022-09-12T00:51:11;2.33;;;2.20;;
9445;SDS011;4761;49.490;10.908;2022-09-12T00:53:38;2.80;;;2.60;;
9445;SDS011;4761;49.490;10.908;2022-09-12T00:56:06;2.77;;;2.57;;
9445;SDS011;4761;49.490;10.908;2022-09-12T00:58:36;2.75;;;2.50;;
9445;SDS011;4761;49.490;10.908;2022-09-12T01:01:23;2.77;;;2.57;;
9445;SDS011;4761;49.490;10.908;2022-09-12T01:03:49;3.93;;;2.83;;
9445;SDS011;4761;49.490;10.908;2022-09-12T01:06:17;3.03;;;2.83;;
9445;SDS011;4761;49.490;10.908;2022-09-12T01:08:50;3.42;;;3.10;;
9445;SDS011;4761;49.490;10.908;2022-09-12T01:11:18;3.97;;;2.90;;
9445;SDS011;4761;49.490;10.908;2022-09-12T01:13:45;4.50;;;2.87;;
9445;SDS011;4761;49.490;10.908;2022-09-12T01:16:11;4.37;;;2.77;;
9445;SDS011;4761;49.490;10.908;2022-09-12T01:18:40;3.50;;;2.90;;
9445;SDS011;4761;49.490;10.908;2022-09-12T01:21:24;4.03;;;3.00;;
9445;SDS011;4761;49.490;10.908;2022-09-12T01:24:10;5.53;;;3.37;;
9445;SDS011;4761;49.490;10.908;2022-09-12T01:27:07;4.47;;;3.23;;
9445;SDS011;4761;49.490;10.908;2022-09-12T01:32:54;4.88;;;3.15;;
9445;SDS011;4761;49.490;10.908;2022-09-12T01:43:34;7.10;;;4.37;;
9445;SDS011;4761;49.490;10.908;2022-09-12T01:46:09;7.20;;;4.47;;
9445;SDS011;4761;49.490;10.908;2022-09-12T01:48:45;8.00;;;4.53;;
9445;SDS011;4761;49.490;10.908;2022-09-12T01:51:40;6.20;;;4.18;;
9445;SDS011;4761;49.490;10.908;2022-09-12T01:54:10;7.27;;;3.97;;
9445;SDS011;4761;49.490;10.908;2022-09-12T01:56:44;6.75;;;4.53;;
9445;SDS011;4761;49.490;10.908;2022-09-12T01:59:16;5.73;;;4.43;;
9445;SDS011;4761;49.490;10.908;2022-09-12T02:01:55;6.68;;;4.70;;
9445;SDS011;4761;49.490;10.908;2022-09-12T02:04:33;6.07;;;4.25;;
9445;SDS011;4761;49.490;10.908;2022-09-12T02:07:05;6.43;;;4.32;;
9445;SDS011;4761;49.490;10.908;2022-09-12T02:09:39;5.95;;;3.90;;
9445;SDS011;4761;49.490;10.908;2022-09-12T02:12:27;6.03;;;4.30;;
9445;SDS011;4761;49.490;10.908;2022-09-12T02:15:01;6.27;;;4.27;;
9445;SDS011;4761;49.490;10.908;2022-09-12T02:17:31;5.22;;;4.00;;
9445;SDS011;4761;49.490;10.908;2022-09-12T02:20:20;6.68;;;4.22;;
9445;SDS011;4761;49.490;10.908;2022-09-12T02:22:51;4.77;;;4.07;;
9445;SDS011;4761;49.490;10.908;2022-09-12T02:25:19;5.90;;;3.63;;
9445;SDS011;4761;49.490;10.908;2022-09-12T02:30:19;4.43;;;3.60;;
9445;SDS011;4761;49.490;10.908;2022-09-12T02:36:19;5.40;;;3.90;;
9445;SDS011;4761;49.490;10.908;2022-09-12T02:38:41;5.33;;;3.40;;
9445;SDS011;4761;49.490;10.908;2022-09-12T02:41:09;3.87;;;3.43;;
9445;SDS011;4761;49.490;10.908;2022-09-12T02:43:38;3.77;;;3.10;;
9445;SDS011;4761;49.490;10.908;2022-09-12T02:46:05;3.80;;;3.07;;
9445;SDS011;4761;49.490;10.908;2022-09-12T02:48:34;4.13;;;3.30;;
9445;SDS011;4761;49.490;10.908;2022-09-12T02:51:05;3.43;;;3.07;;
9445;SDS011;4761;49.490;10.908;2022-09-12T02:53:31;3.80;;;3.33;;
9445;SDS011;4761;49.490;10.908;2022-09-12T02:55:57;3.70;;;3.20;;
9445;SDS011;4761;49.490;10.908;2022-09-12T02:58:25;3.20;;;2.87;;
9445;SDS011;4761;49.490;10.908;2022-09-12T03:00:59;3.87;;;2.80;;
9445;SDS011;4761;49.490;10.908;2022-09-12T03:03:32;4.47;;;2.90;;
9445;SDS011;4761;49.490;10.908;2022-09-12T03:09:27;3.70;;;3.00;;
9445;SDS011;4761;49.490;10.908;2022-09-12T03:12:25;2.70;;;2.50;;
9445;SDS011;4761;49.490;10.908;2022-09-12T03:20:21;2.60;;;2.40;;
9445;SDS011;4761;49.490;10.908;2022-09-12T03:25:24;2.90;;;2.70;;
9445;SDS011;4761;49.490;10.908;2022-09-12T03:27:58;2.50;;;2.30;;
9445;SDS011;4761;49.490;10.908;2022-09-12T03:30:36;2.60;;;2.40;;
9445;SDS011;4761;49.490;10.908;2022-09-12T03:33:03;2.63;;;2.43;;
9445;SDS011;4761;49.490;10.908;2022-09-12T03:35:29;2.60;;;2.40;;
9445;SDS011;4761;49.490;10.908;2022-09-12T03:37:54;2.60;;;2.40;;
9445;SDS011;4761;49.490;10.908;2022-09-12T03:40:20;3.33;;;3.03;;
9445;SDS011;4761;49.490;10.908;2022-09-12T03:42:45;2.80;;;2.60;;
9445;SDS011;4761;49.490;10.908;2022-09-12T03:45:11;2.80;;;2.60;;
9445;SDS011;4761;49.490;10.908;2022-09-12T03:47:36;2.80;;;2.40;;
9445;SDS011;4761;49.490;10.908;2022-09-12T03:50:02;2.43;;;2.23;;
9445;SDS011;4761;49.490;10.908;2022-09-12T03:52:29;2.60;;;2.40;;
9445;SDS011;4761;49.490;10.908;2022-09-12T03:54:54;2.73;;;2.30;;
9445;SDS011;4761;49.490;10.908;2022-09-12T03:57:20;2.40;;;2.20;;
9445;SDS011;4761;49.490;10.908;2022-09-12T03:59:47;2.50;;;2.30;;
9445;SDS011;4761;49.490;10.908;2022-09-12T04:02:13;2.50;;;2.30;;
9445;SDS011;4761;49.490;10.908;2022-09-12T04:04:39;2.88;;;2.22;;
9445;SDS011;4761;49.490;10.908;2022-09-12T04:07:07;3.00;;;2.60;;
9445;SDS011;4761;49.490;10.908;2022-09-12T04:09:33;2.42;;;2.22;;
9445;SDS011;4761;49.490;10.908;2022-09-12T04:11:59;2.40;;;2.20;;
9445;SDS011;4761;49.490;10.908;2022-09-12T04:14:24;2.30;;;2.10;;
9445;SDS011;4761;49.490;10.908;2022-09-12T04:16:50;2.40;;;2.20;;
9445;SDS011;4761;49.490;10.908;2022-09-12T04:19:16;2.60;;;2.10;;
9445;SDS011;4761;49.490;10.908;2022-09-12T04:21:42;2.20;;;2.10;;
9445;SDS011;4761;49.490;10.908;2022-09-12T04:24:07;2.53;;;2.33;;
9445;SDS011;4761;49.490;10.908;2022-09-12T04:26:33;2.50;;;2.30;;
9445;SDS011;4761;49.490;10.908;2022-09-12T04:28:59;2.70;;;2.50;;
9445;SDS011;4761;49.490;10.908;2022-09-12T04:31:24;2.35;;;2.15;;
9445;SDS011;4761;49.490;10.908;2022-09-12T04:33:57;7.57;;;2.20;;
9445;SDS011;4761;49.490;10.908;2022-09-12T04:36:24;2.53;;;2.33;;
9445;SDS011;4761;49.490;10.908;2022-09-12T04:38:51;2.57;;;2.37;;
9445;SDS011;4761;49.490;10.908;2022-09-12T04:41:18;1.90;;;1.80;;
9445;SDS011;4761;49.490;10.908;2022-09-12T04:43:45;2.43;;;2.10;;
9445;SDS011;4761;49.490;10.908;2022-09-12T04:46:12;1.90;;;1.80;;
9445;SDS011;4761;49.490;10.908;2022-09-12T04:48:40;2.22;;;2.08;;
9445;SDS011;4761;49.490;10.908;2022-09-12T04:51:07;2.28;;;2.08;;
9445;SDS011;4761;49.490;10.908;2022-09-12T04:53:37;2.13;;;2.03;;
9445;SDS011;4761;49.490;10.908;2022-09-12T04:56:03;2.20;;;2.10;;
9445;SDS011;4761;49.490;10.908;2022-09-12T04:58:31;2.20;;;2.07;;
9445;SDS011;4761;49.490;10.908;2022-09-12T05:01:07;2.20;;;2.00;;
9445;SDS011;4761;49.490;10.908;2022-09-12T05:03:33;1.80;;;1.70;;
9445;SDS011;4761;49.490;10.908;2022-09-12T05:06:02;2.10;;;2.00;;
9445;SDS011;4761;49.490;10.908;2022-09-12T05:08:28;2.23;;;2.07;;
9445;SDS011;4761;49.490;10.908;2022-09-12T05:10:54;2.03;;;1.93;;
9445;SDS011;4761;49.490;10.908;2022-09-12T05:13:20;1.90;;;1.80;;
9445;SDS011;4761;49.490;10.908;2022-09-12T05:15:55;2.27;;;2.07;;
9445;SDS011;4761;49.490;10.908;2022-09-12T05:18:22;1.90;;;1.77;;
9445;SDS011;4761;49.490;10.908;2022-09-12T05:20:47;1.80;;;1.70;;
9445;SDS011;4761;49.490;10.908;2022-09-12T05:23:13;1.90;;;1.80;;
9445;SDS011;4761;49.490;10.908;2022-09-12T05:25:38;2.10;;;1.90;;
9445;SDS011;4761;49.490;10.908;2022-09-12T05:28:03;1.95;;;1.85;;
9445;SDS011;4761;49.490;10.908;2022-09-12T05:30:29;2.30;;;2.10;;
9445;SDS011;4761;49.490;10.908;2022-09-12T05:32:55;2.00;;;1.90;;
9445;SDS011;4761;49.490;10.908;2022-09-12T05:35:20;2.10;;;2.00;;
9445;SDS011;4761;49.490;10.908;2022-09-12T05:37:46;2.13;;;1.93;;
9445;SDS011;4761;49.490;10.908;2022-09-12T05:40:11;2.10;;;1.97;;
9445;SDS011;4761;49.490;10.908;2022-09-12T05:42:41;2.70;;;2.33;;
9445;SDS011;4761;49.490;10.908;2022-09-12T05:45:07;2.77;;;2.57;;
9445;SDS011;4761;49.490;10.908;2022-09-12T05:47:32;2.70;;;2.50;;
9445;SDS011;4761;49.490;10.908;2022-09-12T05:49:58;2.63;;;2.17;;
9445;SDS011;4761;49.490;10.908;2022-09-12T05:52:23;3.30;;;2.17;;
9445;SDS011;4761;49.490;10.908;2022-09-12T05:54:49;2.42;;;2.22;;
9445;SDS011;4761;49.490;10.908;2022-09-12T05:57:14;2.40;;;2.20;;
9445;SDS011;4761;49.490;10.908;2022-09-12T05:59:40;2.63;;;2.43;;
9445;SDS011;4761;49.490;10.908;2022-09-12T06:02:07;2.37;;;2.23;;
9445;SDS011;4761;49.490;10.908;2022-09-12T06:04:34;2.50;;;2.30;;
9445;SDS011;4761;49.490;10.908;2022-09-12T06:07:00;2.43;;;2.30;;
9445;SDS011;4761;49.490;10.908;2022-09-12T06:09:25;2.43;;;2.30;;
9445;SDS011;4761;49.490;10.908;2022-09-12T06:11:52;1.98;;;1.88;;
9445;SDS011;4761;49.490;10.908;2022-09-12T06:14:17;2.10;;;2.00;;
9445;SDS011;4761;49.490;10.908;2022-09-12T06:16:43;2.40;;;2.20;;
9445;SDS011;4761;49.490;10.908;2022-09-12T06:19:17;2.30;;;2.10;;
9445;SDS011;4761;49.490;10.908;2022-09-12T06:21:44;2.07;;;1.97;;
9445;SDS011;4761;49.490;10.908;2022-09-12T06:24:11;2.33;;;2.15;;
9445;SDS011;4761;49.490;10.908;2022-09-12T06:26:37;2.30;;;2.00;;
9445;SDS011;4761;49.490;10.908;2022-09-12T06:29:03;2.10;;;2.00;;
9445;SDS011;4761;49.490;10.908;2022-09-12T06:31:30;2.07;;;1.97;;
9445;SDS011;4761;49.490;10.908;2022-09-12T06:33:58;2.10;;;1.90;;
9445;SDS011;4761;49.490;10.908;2022-09-12T06:36:27;2.55;;;2.30;;
9445;SDS011;4761;49.490;10.908;2022-09-12T06:38:56;2.47;;;2.27;;
9445;SDS011;4761;49.490;10.908;2022-09-12T06:41:24;2.10;;;2.00;;
9445;SDS011;4761;49.490;10.908;2022-09-12T06:43:51;2.90;;;1.98;;
9445;SDS011;4761;49.490;10.908;2022-09-12T06:46:17;2.55;;;2.35;;
9445;SDS011;4761;49.490;10.908;2022-09-12T06:48:43;3.23;;;3.03;;
9445;SDS011;4761;49.490;10.908;2022-09-12T06:51:10;3.07;;;2.80;;
9445;SDS011;4761;49.490;10.908;2022-09-12T06:53:37;3.23;;;2.97;;
9445;SDS011;4761;49.490;10.908;2022-09-12T06:56:08;2.80;;;2.60;;
9445;SDS011;4761;49.490;10.908;2022-09-12T06:58:35;2.83;;;2.60;;
9445;SDS011;4761;49.490;10.908;2022-09-12T07:03:37;2.95;;;2.65;;
9445;SDS011;4761;49.490;10.908;2022-09-12T07:06:03;2.67;;;2.47;;
9445;SDS011;4761;49.490;10.908;2022-09-12T07:08:31;3.05;;;2.80;;
9445;SDS011;4761;49.490;10.908;2022-09-12T07:10:58;3.00;;;2.60;;
9445;SDS011;4761;49.490;10.908;2022-09-12T07:13:25;2.83;;;2.63;;
9445;SDS011;4761;49.490;10.908;2022-09-12T07:15:51;2.90;;;2.60;;
9445;SDS011;4761;49.490;10.908;2022-09-12T07:18:16;2.63;;;2.43;;
9445;SDS011;4761;49.490;10.908;2022-09-12T07:20:42;2.83;;;2.60;;
9445;SDS011;4761;49.490;10.908;2022-09-12T07:23:08;2.78;;;2.58;;
9445;SDS011;4761;49.490;10.908;2022-09-12T07:25:33;3.20;;;2.90;;
9445;SDS011;4761;49.490;10.908;2022-09-12T07:27:59;3.47;;;2.95;;
9445;SDS011;4761;49.490;10.908;2022-09-12T07:30:24;2.83;;;2.63;;
9445;SDS011;4761;49.490;10.908;2022-09-12T07:32:51;3.30;;;2.80;;
9445;SDS011;4761;49.490;10.908;2022-09-12T07:35:18;3.15;;;2.78;;
9445;SDS011;4761;49.490;10.908;2022-09-12T07:37:44;3.03;;;2.83;;
9445;SDS011;4761;49.490;10.908;2022-09-12T07:40:09;4.27;;;3.20;;
9445;SDS011;4761;49.490;10.908;2022-09-12T07:42:35;3.63;;;3.33;;
9445;SDS011;4761;49.490;10.908;2022-09-12T07:45:00;3.67;;;3.38;;
9445;SDS011;4761;49.490;10.908;2022-09-12T07:47:26;3.60;;;3.30;;
9445;SDS011;4761;49.490;10.908;2022-09-12T07:49:51;3.57;;;3.33;;
9445;SDS011;4761;49.490;10.908;2022-09-12T07:52:17;3.87;;;3.53;;
9445;SDS011;4761;49.490;10.908;2022-09-12T07:54:43;4.00;;;3.70;;
9445;SDS011;4761;49.490;10.908;2022-09-12T07:57:08;4.70;;;4.10;;
9445;SDS011;4761;49.490;10.908;2022-09-12T07:59:34;4.77;;;4.37;;
9445;SDS011;4761;49.490;10.908;2022-09-12T08:02:00;4.20;;;3.90;;
9445;SDS011;4761;49.490;10.908;2022-09-12T08:04:25;4.80;;;4.40;;
9445;SDS011;4761;49.490;10.908;2022-09-12T08:06:51;4.95;;;4.45;;
9445;SDS011;4761;49.490;10.908;2022-09-12T08:09:17;4.53;;;4.20;;
9445;SDS011;4761;49.490;10.908;2022-09-12T08:11:42;4.83;;;4.40;;
9445;SDS011;4761;49.490;10.908;2022-09-12T08:14:08;5.05;;;4.55;;
9445;SDS011;4761;49.490;10.908;2022-09-12T08:16:34;7.82;;;4.60;;
9445;SDS011;4761;49.490;10.908;2022-09-12T08:19:00;9.40;;;4.80;;
9445;SDS011;4761;49.490;10.908;2022-09-12T08:21:27;6.30;;;4.85;;
9445;SDS011;4761;49.490;10.908;2022-09-12T08:23:55;6.40;;;5.07;;
9445;SDS011;4761;49.490;10.908;2022-09-12T08:26:25;5.65;;;5.07;;
9445;SDS011;4761;49.490;10.908;2022-09-12T08:28:51;6.53;;;5.88;;
9445;SDS011;4761;49.490;10.908;2022-09-12T08:31:18;5.73;;;4.83;;
9445;SDS011;4761;49.490;10.908;2022-09-12T08:33:45;5.87;;;5.30;;
9445;SDS011;4761;49.490;10.908;2022-09-12T08:36:29;6.88;;;5.25;;
9445;SDS011;4761;49.490;10.908;2022-09-12T08:38:59;7.40;;;5.47;;
9445;SDS011;4761;49.490;10.908;2022-09-12T08:41:40;6.40;;;5.60;;
9445;SDS011;4761;49.490;10.908;2022-09-12T08:49:29;5.50;;;5.00;;
9445;SDS011;4761;49.490;10.908;2022-09-12T08:51:58;6.97;;;5.47;;
9445;SDS011;4761;49.490;10.908;2022-09-12T08:54:29;6.78;;;6.00;;
9445;SDS011;4761;49.490;10.908;2022-09-12T08:56:57;6.57;;;5.75;;
9445;SDS011;4761;49.490;10.908;2022-09-12T08:59:28;6.10;;;5.30;;
9445;SDS011;4761;49.490;10.908;2022-09-12T09:02:02;6.20;;;5.60;;
9445;SDS011;4761;49.490;10.908;2022-09-12T09:04:36;5.85;;;5.30;;
9445;SDS011;4761;49.490;10.908;2022-09-12T09:07:25;5.90;;;5.40;;
9445;SDS011;4761;49.490;10.908;2022-09-12T09:18:49;5.82;;;5.28;;
9445;SDS011;4761;49.490;10.908;2022-09-12T09:21:21;5.63;;;5.13;;
9445;SDS011;4761;49.490;10.908;2022-09-12T09:23:53;5.50;;;5.00;;
9445;SDS011;4761;49.490;10.908;2022-09-12T09:29:40;5.50;;;5.00;;
9445;SDS011;4761;49.490;10.908;2022-09-12T09:32:12;5.90;;;5.20;;
9445;SDS011;4761;49.490;10.908;2022-09-12T09:34:42;5.85;;;5.25;;
9445;SDS011;4761;49.490;10.908;2022-09-12T09:37:14;5.50;;;5.00;;
9445;SDS011;4761;49.490;10.908;2022-09-12T09:42:25;5.55;;;5.10;;
9445;SDS011;4761;49.490;10.908;2022-09-12T09:45:16;5.97;;;5.38;;
9445;SDS011;4761;49.490;10.908;2022-09-12T09:47:45;5.40;;;5.00;;
9445;SDS011;4761;49.490;10.908;2022-09-12T09:50:17;5.60;;;5.10;;
9445;SDS011;4761;49.490;10.908;2022-09-12T09:52:43;5.82;;;5.32;;
9445;SDS011;4761;49.490;10.908;2022-09-12T09:55:12;5.75;;;5.25;;
9445;SDS011;4761;49.490;10.908;2022-09-12T09:57:42;6.13;;;5.53;;
9445;SDS011;4761;49.490;10.908;2022-09-12T10:02:56;5.40;;;4.90;;
9445;SDS011;4761;49.490;10.908;2022-09-12T10:05:27;5.40;;;4.90;;
9445;SDS011;4761;49.490;10.908;2022-09-12T10:07:53;5.47;;;4.97;;
9445;SDS011;4761;49.490;10.908;2022-09-12T10:10:19;6.28;;;5.38;;
9445;SDS011;4761;49.490;10.908;2022-09-12T10:12:48;5.85;;;5.25;;
9445;SDS011;4761;49.490;10.908;2022-09-12T10:15:24;5.50;;;5.00;;
9445;SDS011;4761;49.490;10.908;2022-09-12T10:17:50;5.90;;;5.30;;
9445;SDS011;4761;49.490;10.908;2022-09-12T10:23:00;5.15;;;4.65;;
9445;SDS011;4761;49.490;10.908;2022-09-12T10:25:39;4.00;;;3.60;;
9445;SDS011;4761;49.490;10.908;2022-09-12T10:28:05;2.97;;;2.42;;
9445;SDS011;4761;49.490;10.908;2022-09-12T10:30:49;2.35;;;2.13;;
9445;SDS011;4761;49.490;10.908;2022-09-12T10:33:16;3.08;;;2.47;;
9445;SDS011;4761;49.490;10.908;2022-09-12T10:35:44;4.18;;;2.80;;
9445;SDS011;4761;49.490;10.908;2022-09-12T10:38:16;6.15;;;3.15;;
9445;SDS011;4761;49.490;10.908;2022-09-12T10:41:00;5.53;;;3.55;;
9445;SDS011;4761;49.490;10.908;2022-09-12T10:43:29;4.18;;;3.70;;
9445;SDS011;4761;49.490;10.908;2022-09-12T10:48:38;4.53;;;4.07;;
9445;SDS011;4761;49.490;10.908;2022-09-12T10:51:04;4.38;;;3.80;;
9445;SDS011;4761;49.490;10.908;2022-09-12T10:53:39;4.60;;;4.20;;
9445;SDS011;4761;49.490;10.908;2022-09-12T10:56:09;5.18;;;3.80;;
9445;SDS011;4761;49.490;10.908;2022-09-12T11:01:26;4.25;;;3.63;;
9445;SDS011;4761;49.490;10.908;2022-09-12T11:07:33;3.80;;;3.50;;
9445;SDS011;4761;49.490;10.908;2022-09-12T11:18:10;4.57;;;3.78;;
9445;SDS011;4761;49.490;10.908;2022-09-12T11:20:46;3.10;;;2.90;;
9445;SDS011;4761;49.490;10.908;2022-09-12T11:31:47;3.33;;;3.03;;
9445;SDS011;4761;49.490;10.908;2022-09-12T11:34:33;5.32;;;3.63;;
9445;SDS011;4761;49.490;10.908;2022-09-12T11:37:40;3.25;;;2.95;;
9445;SDS011;4761;49.490;10.908;2022-09-12T11:43:32;3.25;;;2.95;;
9445;SDS011;4761;49.490;10.908;2022-09-12T11:56:48;3.00;;;2.80;;
9445;SDS011;4761;49.490;10.908;2022-09-12T11:59:23;2.90;;;2.70;;
9445;SDS011;4761;49.490;10.908;2022-09-12T12:02:10;3.38;;;3.08;;
9445;SDS011;4761;49.490;10.908;2022-09-12T12:04:40;3.45;;;2.90;;
9445;SDS011;4761;49.490;10.908;2022-09-12T12:07:30;3.33;;;3.03;;
9445;SDS011;4761;49.490;10.908;2022-09-12T12:10:06;3.40;;;3.10;;
9445;SDS011;4761;49.490;10.908;2022-09-12T12:12:45;3.03;;;2.80;;
9445;SDS011;4761;49.490;10.908;2022-09-12T12:15:12;3.30;;;3.08;;
9445;SDS011;4761;49.490;10.908;2022-09-12T12:17:40;3.10;;;2.80;;
9445;SDS011;4761;49.490;10.908;2022-09-12T12:20:06;3.17;;;2.88;;
9445;SDS011;4761;49.490;10.908;2022-09-12T12:22:51;3.50;;;3.20;;
9445;SDS011;4761;49.490;10.908;2022-09-12T12:27:45;3.72;;;3.13;;
9445;SDS011;4761;49.490;10.908;2022-09-12T12:33:01;10.20;;;2.83;;
9445;SDS011;4761;49.490;10.908;2022-09-12T12:43:42;7.03;;;2.83;;
9445;SDS011;4761;49.490;10.908;2022-09-12T12:46:15;14.52;;;2.70;;
9445;SDS011;4761;49.490;10.908;2022-09-12T12:53:53;4.65;;;2.70;;
9445;SDS011;4761;49.490;10.908;2022-09-12T12:56:38;4.97;;;2.88;;
9445;SDS011;4761;49.490;10.908;2022-09-12T12:59:19;8.40;;;2.83;;
9445;SDS011;4761;49.490;10.908;2022-09-12T13:01:47;8.18;;;2.80;;
9445;SDS011;4761;49.490;10.908;2022-09-12T13:04:17;6.43;;;2.80;;
9445;SDS011;4761;49.490;10.908;2022-09-12T13:06:58;5.25;;;2.45;;
9445;SDS011;4761;49.490;10.908;2022-09-12T13:09:31;5.35;;;2.22;;
9445;SDS011;4761;49.490;10.908;2022-09-12T13:12:09;3.92;;;2.30;;
9445;SDS011;4761;49.490;10.908;2022-09-12T13:20:13;6.40;;;2.67;;
9445;SDS011;4761;49.490;10.908;2022-09-12T13:22:43;4.35;;;2.63;;
9445;SDS011;4761;49.490;10.908;2022-09-12T13:25:24;6.70;;;3.10;;
9445;SDS011;4761;49.490;10.908;2022-09-12T13:30:21;4.97;;;2.80;;
9445;SDS011;4761;49.490;10.908;2022-09-12T13:32:47;4.30;;;2.88;;
9445;SDS011;4761;49.490;10.908;2022-09-12T13:35:38;4.95;;;2.80;;
9445;SDS011;4761;49.490;10.908;2022-09-12T13:38:17;2.90;;;2.53;;
9445;SDS011;4761;49.490;10.908;2022-09-12T13:43:59;3.88;;;2.60;;
9445;SDS011;4761;49.490;10.908;2022-09-12T13:46:30;3.20;;;2.63;;
9445;SDS011;4761;49.490;10.908;2022-09-12T13:48:57;4.05;;;2.70;;
9445;SDS011;4761;49.490;10.908;2022-09-12T13:51:26;4.32;;;2.85;;
9445;SDS011;4761;49.490;10.908;2022-09-12T13:53:55;3.80;;;3.05;;
9445;SDS011;4761;49.490;10.908;2022-09-12T13:56:22;3.47;;;2.80;;
9445;SDS011;4761;49.490;10.908;2022-09-12T13:58:52;2.80;;;2.60;;
9445;SDS011;4761;49.490;10.908;2022-09-12T14:01:18;3.65;;;2.80;;
9445;SDS011;4761;49.490;10.908;2022-09-12T14:03:52;3.05;;;2.67;;
9445;SDS011;4761;49.490;10.908;2022-09-12T14:06:42;3.42;;;3.13;;
9445;SDS011;4761;49.490;10.908;2022-09-12T14:09:30;3.10;;;2.80;;
9445;SDS011;4761;49.490;10.908;2022-09-12T14:12:02;3.40;;;3.05;;
9445;SDS011;4761;49.490;10.908;2022-09-12T14:14:33;3.90;;;2.90;;
9445;SDS011;4761;49.490;10.908;2022-09-12T14:17:00;4.38;;;3.30;;
9445;SDS011;4761;49.490;10.908;2022-09-12T14:19:45;3.38;;;3.08;;
9445;SDS011;4761;49.490;10.908;2022-09-12T14:22:12;3.53;;;2.80;;
9445;SDS011;4761;49.490;10.908;2022-09-12T14:24:45;4.13;;;3.45;;
9445;SDS011;4761;49.490;10.908;2022-09-12T14:27:15;4.80;;;3.35;;
9445;SDS011;4761;49.490;10.908;2022-09-12T14:29:48;3.42;;;2.95;;
9445;SDS011;4761;49.490;10.908;2022-09-12T14:32:20;2.92;;;2.58;;
9445;SDS011;4761;49.490;10.908;2022-09-12T14:37:36;3.25;;;2.85;;
9445;SDS011;4761;49.490;10.908;2022-09-12T14:40:02;2.65;;;2.45;;
9445;SDS011;4761;49.490;10.908;2022-09-12T14:42:39;4.68;;;2.72;;
9445;SDS011;4761;49.490;10.908;2022-09-12T14:45:13;2.78;;;2.58;;
9445;SDS011;4761;49.490;10.908;2022-09-12T14:47:49;3.25;;;2.95;;
9445;SDS011;4761;49.490;10.908;2022-09-12T14:50:17;4.30;;;2.97;;
9445;SDS011;4761;49.490;10.908;2022-09-12T14:56:11;4.28;;;2.67;;
9445;SDS011;4761;49.490;10.908;2022-09-12T14:58:37;2.80;;;2.60;;
9445;SDS011;4761;49.490;10.908;2022-09-12T15:03:31;2.88;;;2.67;;
9445;SDS011;4761;49.490;10.908;2022-09-12T15:05:58;2.75;;;2.55;;
9445;SDS011;4761;49.490;10.908;2022-09-12T15:08:26;3.13;;;2.83;;
9445;SDS011;4761;49.490;10.908;2022-09-12T15:10:52;3.00;;;2.80;;
9445;SDS011;4761;49.490;10.908;2022-09-12T15:13:20;3.20;;;3.00;;
9445;SDS011;4761;49.490;10.908;2022-09-12T15:15:54;3.45;;;3.15;;
9445;SDS011;4761;49.490;10.908;2022-09-12T15:18:21;2.60;;;2.40;;
9445;SDS011;4761;49.490;10.908;2022-09-12T15:20:50;3.10;;;2.80;;
9445;SDS011;4761;49.490;10.908;2022-09-12T15:35:15;2.20;;;2.00;;
9445;SDS011;4761;49.490;10.908;2022-09-12T15:37:42;1.90;;;1.80;;
9445;SDS011;4761;49.490;10.908;2022-09-12T15:40:08;1.80;;;1.70;;
9445;SDS011;4761;49.490;10.908;2022-09-12T15:42:35;1.88;;;1.77;;
9445;SDS011;4761;49.490;10.908;2022-09-12T15:45:01;1.92;;;1.83;;
9445;SDS011;4761;49.490;10.908;2022-09-12T15:47:28;2.00;;;1.90;;
9445;SDS011;4761;49.490;10.908;2022-09-12T15:49:54;1.77;;;1.67;;
9445;SDS011;4761;49.490;10.908;2022-09-12T15:52:20;2.00;;;1.90;;
9445;SDS011;4761;49.490;10.908;2022-09-12T15:54:45;2.10;;;2.00;;
9445;SDS011;4761;49.490;10.908;2022-09-12T15:57:11;1.90;;;1.80;;
9445;SDS011;4761;49.490;10.908;2022-09-12T15:59:36;1.88;;;1.77;;
9445;SDS011;4761;49.490;10.908;2022-09-12T16:02:02;1.85;;;1.75;;
9445;SDS011;4761;49.490;10.908;2022-09-12T16:04:28;2.00;;;1.90;;
9445;SDS011;4761;49.490;10.908;2022-09-12T16:06:54;1.80;;;1.70;;
9445;SDS011;4761;49.490;10.908;2022-09-12T16:09:21;1.85;;;1.75;;
9445;SDS011;4761;49.490;10.908;2022-09-12T16:11:47;2.00;;;1.90;;
9445;SDS011;4761;49.490;10.908;2022-09-12T16:14:14;1.80;;;1.70;;
9445;SDS011;4761;49.490;10.908;2022-09-12T16:16:41;1.75;;;1.65;;
9445;SDS011;4761;49.490;10.908;2022-09-12T16:19:07;1.60;;;1.50;;
9445;SDS011;4761;49.490;10.908;2022-09-12T16:21:34;1.67;;;1.58;;
9445;SDS011;4761;49.490;10.908;2022-09-12T16:24:00;1.60;;;1.50;;
9445;SDS011;4761;49.490;10.908;2022-09-12T16:26:26;1.73;;;1.63;;
9445;SDS011;4761;49.490;10.908;2022-09-12T16:28:55;1.58;;;1.48;;
9445;SDS011;4761;49.490;10.908;2022-09-12T16:31:22;1.27;;;1.27;;
9445;SDS011;4761;49.490;10.908;2022-09-12T16:33:48;1.17;;;1.17;;
9445;SDS011;4761;49.490;10.908;2022-09-12T16:36:14;1.20;;;1.20;;
9445;SDS011;4761;49.490;10.908;2022-09-12T16:38:43;1.48;;;1.38;;
9445;SDS011;4761;49.490;10.908;2022-09-12T16:41:10;1.20;;;1.20;;
9445;SDS011;4761;49.490;10.908;2022-09-12T16:43:36;1.52;;;1.42;;
9445;SDS011;4761;49.490;10.908;2022-09-12T16:46:09;1.35;;;1.25;;
9445;SDS011;4761;49.490;10.908;2022-09-12T16:48:40;1.60;;;1.50;;
9445;SDS011;4761;49.490;10.908;2022-09-12T16:51:11;1.50;;;1.40;;
9445;SDS011;4761;49.490;10.908;2022-09-12T16:53:37;1.80;;;1.70;;
9445;SDS011;4761;49.490;10.908;2022-09-12T16:56:03;1.80;;;1.70;;
9445;SDS011;4761;49.490;10.908;2022-09-12T16:58:33;1.70;;;1.60;;
9445;SDS011;4761;49.490;10.908;2022-09-12T17:01:00;1.60;;;1.50;;
9445;SDS011;4761;49.490;10.908;2022-09-12T17:03:28;1.90;;;1.80;;
9445;SDS011;4761;49.490;10.908;2022-09-12T17:06:01;1.98;;;1.88;;
9445;SDS011;4761;49.490;10.908;2022-09-12T17:08:28;2.08;;;1.98;;
9445;SDS011;4761;49.490;10.908;2022-09-12T17:10:58;1.92;;;1.83;;
9445;SDS011;4761;49.490;10.908;2022-09-12T17:13:25;1.85;;;1.75;;
9445;SDS011;4761;49.490;10.908;2022-09-12T17:15:51;1.83;;;1.73;;
9445;SDS011;4761;49.490;10.908;2022-09-12T17:18:16;2.00;;;1.90;;
9445;SDS011;4761;49.490;10.908;2022-09-12T17:20:42;1.90;;;1.80;;
9445;SDS011;4761;49.490;10.908;2022-09-12T17:23:08;2.10;;;2.00;;
9445;SDS011;4761;49.490;10.908;2022-09-12T17:25:33;1.80;;;1.70;;
9445;SDS011;4761;49.490;10.908;2022-09-12T17:27:59;1.65;;;1.55;;
9445;SDS011;4761;49.490;10.908;2022-09-12T17:30:25;1.90;;;1.80;;
9445;SDS011;4761;49.490;10.908;2022-09-12T17:32:50;1.90;;;1.80;;
9445;SDS011;4761;49.490;10.908;2022-09-12T17:35:16;2.42;;;2.22;;
9445;SDS011;4761;49.490;10.908;2022-09-12T17:37:42;2.08;;;1.98;;
9445;SDS011;4761;49.490;10.908;2022-09-12T17:40:07;2.35;;;2.17;;
9445;SDS011;4761;49.490;10.908;2022-09-12T17:42:33;2.42;;;2.22;;
9445;SDS011;4761;49.490;10.908;2022-09-12T17:45:00;2.47;;;2.28;;